Time;durP1;ratioP1;P1;durP2;ratioP2;P2;SDS_P1;SDS_P2;PMS_P1;PMS_P2;Temp;Humidity;BMP_temperature;BMP_pressure;BME280_temperature;BME280_humidity;BME280_pressure;Samples;Min_cycle;Max_cycle;Signal;HPM_P1;HPM_P2
2022/09/02 00:01:15;;;;;;;14.43;13.20;;;17.70;93.20;;;;;;5060313;28;20481;-67
2022/09/02 00:03:43;;;;;;;15.70;14.37;;;17.70;93.00;;;;;;5056142;28;20478;-67
2022/09/02 00:06:11;;;;;;;14.50;13.50;;;17.70;93.00;;;;;;5061654;28;20470;-67
2022/09/02 00:08:39;;;;;;;15.47;14.17;;;17.70;92.90;;;;;;5059704;28;20813;-68
2022/09/02 00:11:07;;;;;;;15.93;14.60;;;17.70;92.80;;;;;;5057555;28;20463;-67
2022/09/02 00:13:36;;;;;;;15.27;13.87;;;17.70;92.70;;;;;;5065941;28;20439;-67
2022/09/02 00:16:05;;;;;;;15.63;14.23;;;17.70;92.40;;;;;;5078574;28;20486;-67
2022/09/02 00:18:34;;;;;;;19.47;14.80;;;17.70;92.50;;;;;;5060188;28;20466;-67
2022/09/02 00:21:03;;;;;;;16.17;14.90;;;17.60;92.50;;;;;;5059462;28;20488;-67
2022/09/02 00:23:30;;;;;;;16.47;15.20;;;17.60;92.40;;;;;;5059972;28;20469;-67
2022/09/02 00:25:58;;;;;;;21.00;15.00;;;17.70;92.40;;;;;;5063157;28;20488;-68
2022/09/02 00:28:24;;;;;;;14.97;13.77;;;17.70;92.20;;;;;;5066170;28;20850;-68
2022/09/02 00:30:53;;;;;;;16.10;14.40;;;17.70;92.00;;;;;;5058619;28;20460;-67
2022/09/02 00:33:22;;;;;;;15.37;13.97;;;17.80;91.80;;;;;;5058018;28;20456;-67
2022/09/02 00:35:50;;;;;;;14.40;13.23;;;17.80;91.60;;;;;;5060266;28;20462;-67
2022/09/02 00:38:17;;;;;;;14.00;12.67;;;17.70;91.70;;;;;;5059814;28;20478;-67
2022/09/02 00:40:46;;;;;;;18.77;12.43;;;17.70;91.60;;;;;;5061797;28;20486;-67
2022/09/02 00:43:23;;;;;;;13.80;12.90;;;17.70;91.70;;;;;;5059156;28;20496;-67
2022/09/02 00:45:50;;;;;;;13.43;12.33;;;17.70;91.70;;;;;;5062818;28;20472;-67
2022/09/02 00:48:19;;;;;;;13.77;12.87;;;17.70;91.60;;;;;;5054451;28;20989;-67
2022/09/02 00:50:49;;;;;;;12.97;12.13;;;17.70;91.50;;;;;;5063985;28;20462;-67
2022/09/02 00:53:18;;;;;;;14.53;13.30;;;17.60;91.50;;;;;;5057891;28;20490;-67
2022/09/02 00:55:48;;;;;;;15.60;13.50;;;17.60;91.60;;;;;;5056507;28;20459;-67
2022/09/02 00:58:19;;;;;;;14.60;13.50;;;17.60;91.80;;;;;;5066817;28;20455;-67
2022/09/02 01:00:51;;;;;;;15.20;13.97;;;17.60;91.70;;;;;;5059643;28;20486;-67
2022/09/02 01:03:20;;;;;;;15.40;14.30;;;17.50;92.00;;;;;;5059356;28;20548;-67
2022/09/02 01:05:51;;;;;;;15.17;13.97;;;17.50;92.00;;;;;;5059997;28;20958;-67
2022/09/02 01:08:23;;;;;;;15.10;13.50;;;17.40;92.10;;;;;;5058814;28;20468;-67
2022/09/02 01:10:54;;;;;;;16.33;14.93;;;17.30;92.20;;;;;;5061371;28;20464;-67
2022/09/02 01:13:23;;;;;;;15.10;14.00;;;17.30;92.50;;;;;;5058074;28;20464;-67
2022/09/02 01:15:54;;;;;;;15.83;14.60;;;17.20;92.50;;;;;;5069994;28;20485;-67
2022/09/02 01:18:24;;;;;;;14.93;13.50;;;17.20;92.70;;;;;;5057662;28;20467;-67
2022/09/02 01:20:54;;;;;;;13.33;12.33;;;17.10;92.80;;;;;;5057256;28;20488;-67
2022/09/02 01:23:23;;;;;;;13.17;12.27;;;17.10;93.00;;;;;;5064290;28;20486;-67
2022/09/02 01:25:50;;;;;;;13.00;12.20;;;17.10;93.00;;;;;;5059631;28;21342;-67
2022/09/02 01:28:19;;;;;;;12.27;11.50;;;17.10;93.10;;;;;;5061615;28;20470;-67
2022/09/02 01:30:48;;;;;;;14.43;11.97;;;17.10;93.00;;;;;;5057219;28;20474;-67
2022/09/02 01:33:16;;;;;;;12.93;11.63;;;17.10;93.30;;;;;;5057200;28;20467;-68
2022/09/02 01:35:43;;;;;;;12.37;11.50;;;17.00;93.40;;;;;;5057747;28;20462;-67
2022/09/02 01:38:11;;;;;;;12.83;12.00;;;17.00;93.60;;;;;;5057876;28;20464;-67
2022/09/02 01:40:40;;;;;;;12.50;11.67;;;17.00;93.60;;;;;;5062813;28;21018;-67
2022/09/02 01:43:09;;;;;;;12.53;11.60;;;17.00;93.60;;;;;;5058911;28;20477;-67
2022/09/02 01:45:37;;;;;;;13.00;12.00;;;17.20;93.80;;;;;;5067173;28;20466;-67
2022/09/02 01:48:07;;;;;;;13.57;12.33;;;17.20;93.70;;;;;;5057662;28;20471;-67
2022/09/02 01:50:35;;;;;;;13.63;12.63;;;17.20;93.60;;;;;;5062255;28;20451;-67
2022/09/02 01:53:04;;;;;;;12.70;11.90;;;17.20;93.70;;;;;;5061452;28;20475;-67
2022/09/02 01:55:32;;;;;;;13.60;12.80;;;17.20;93.60;;;;;;5058823;28;20494;-67
2022/09/02 01:58:03;;;;;;;15.80;12.50;;;17.20;93.60;;;;;;5056573;28;20468;-67
2022/09/02 02:00:29;;;;;;;14.20;13.10;;;17.20;93.80;;;;;;5061834;28;20986;-67
2022/09/02 02:02:56;;;;;;;14.80;13.40;;;17.30;93.70;;;;;;5058910;28;20966;-67
2022/09/02 02:05:24;;;;;;;14.53;13.20;;;17.30;93.60;;;;;;5059252;28;20463;-67
2022/09/02 02:07:51;;;;;;;13.80;12.50;;;17.30;93.60;;;;;;5063116;28;20494;-67
2022/09/02 02:10:20;;;;;;;14.40;13.10;;;17.30;93.60;;;;;;5061996;28;20519;-67
2022/09/02 02:12:49;;;;;;;16.23;14.63;;;17.20;93.60;;;;;;5063061;28;20455;-67
2022/09/02 02:15:20;;;;;;;16.67;15.17;;;17.30;93.80;;;;;;5057772;28;20488;-67
2022/09/02 02:17:47;;;;;;;15.03;13.73;;;17.30;93.70;;;;;;5056111;28;20485;-67
2022/09/02 02:20:20;;;;;;;16.13;14.70;;;17.30;93.70;;;;;;5056396;28;20578;-67
2022/09/02 02:22:47;;;;;;;16.60;14.27;;;17.30;93.70;;;;;;5060070;28;20612;-67
2022/09/02 02:25:15;;;;;;;15.83;14.40;;;17.30;93.80;;;;;;5058710;28;20453;-67
2022/09/02 02:27:44;;;;;;;15.90;14.73;;;17.20;93.80;;;;;;5055998;28;20455;-67
2022/09/02 02:30:15;;;;;;;16.77;14.90;;;17.20;94.00;;;;;;5057877;28;20565;-68
2022/09/02 02:32:46;;;;;;;14.60;13.40;;;17.30;94.00;;;;;;5059829;28;20462;-67
2022/09/02 02:35:16;;;;;;;14.70;13.37;;;17.30;94.00;;;;;;5060763;28;20456;-67
2022/09/02 02:37:43;;;;;;;14.50;13.37;;;17.30;94.00;;;;;;5058913;28;20537;-67
2022/09/02 02:40:11;;;;;;;16.10;14.20;;;17.20;93.90;;;;;;5058066;28;20478;-67
2022/09/02 02:42:39;;;;;;;16.30;14.80;;;17.20;94.10;;;;;;5056721;28;20464;-67
2022/09/02 02:45:11;;;;;;;16.13;14.43;;;17.20;94.30;;;;;;5060359;28;21027;-67
2022/09/02 02:47:41;;;;;;;14.90;13.60;;;17.20;94.20;;;;;;5057213;28;20501;-67
2022/09/02 02:50:12;;;;;;;16.40;14.83;;;17.20;94.30;;;;;;5058522;28;21077;-67
2022/09/02 02:52:40;;;;;;;14.77;13.30;;;17.20;94.40;;;;;;5054740;28;20953;-67
2022/09/02 02:55:08;;;;;;;15.30;14.10;;;17.10;94.40;;;;;;5060193;28;20452;-67
2022/09/02 02:57:37;;;;;;;16.10;14.70;;;17.10;94.50;;;;;;5057226;28;20462;-67
2022/09/02 03:00:06;;;;;;;15.93;14.50;;;17.20;94.50;;;;;;5060248;28;20498;-67
2022/09/02 03:02:33;;;;;;;15.73;14.27;;;17.10;94.70;;;;;;5054620;28;20470;-66
2022/09/02 03:05:02;;;;;;;18.27;15.33;;;17.10;94.70;;;;;;5062445;28;20478;-67
2022/09/02 03:07:31;;;;;;;16.00;14.57;;;17.10;95.30;;;;;;5060725;28;20822;-67
2022/09/02 03:09:58;;;;;;;15.87;14.73;;;17.00;95.10;;;;;;5055920;28;20818;-66
2022/09/02 03:12:27;;;;;;;15.70;14.40;;;17.00;94.90;;;;;;5058048;28;20824;-66
2022/09/02 03:14:53;;;;;;;15.80;14.40;;;17.00;95.10;;;;;;5055081;28;20839;-67
2022/09/02 03:17:20;;;;;;;15.07;13.87;;;17.00;95.40;;;;;;5063691;28;20470;-67
2022/09/02 03:19:49;;;;;;;14.60;13.60;;;17.00;95.40;;;;;;5054074;28;20555;-67
2022/09/02 03:22:17;;;;;;;15.87;14.67;;;16.90;95.50;;;;;;5055152;28;20467;-67
2022/09/02 03:24:45;;;;;;;16.80;15.60;;;16.90;95.70;;;;;;5052096;28;20831;-67
2022/09/02 03:27:14;;;;;;;15.20;14.10;;;16.90;96.00;;;;;;5056156;28;20737;-67
2022/09/02 03:29:41;;;;;;;15.50;14.40;;;16.80;96.00;;;;;;5053760;28;20556;-67
2022/09/02 03:32:09;;;;;;;15.80;14.70;;;16.70;96.10;;;;;;5059658;28;20471;-67
2022/09/02 03:34:36;;;;;;;14.93;13.80;;;16.70;96.30;;;;;;5067294;28;20454;-67
2022/09/02 03:37:03;;;;;;;15.80;14.17;;;16.70;96.40;;;;;;5056915;28;20460;-67
2022/09/02 03:39:30;;;;;;;15.70;14.13;;;16.70;96.50;;;;;;5061436;28;20465;-67
2022/09/02 03:41:59;;;;;;;16.03;14.83;;;16.70;96.70;;;;;;5062838;28;20496;-67
2022/09/02 03:44:26;;;;;;;17.27;13.73;;;16.70;96.50;;;;;;5062360;28;20482;-67
2022/09/02 03:46:53;;;;;;;14.30;13.30;;;16.60;96.80;;;;;;5066314;28;20474;-67
2022/09/02 03:49:21;;;;;;;14.83;13.50;;;16.60;97.10;;;;;;5061705;28;20473;-67
2022/09/02 03:51:47;;;;;;;14.90;13.90;;;16.50;97.30;;;;;;5063306;28;21376;-67
2022/09/02 03:54:15;;;;;;;14.77;13.77;;;16.40;97.50;;;;;;5064579;28;20454;-67
2022/09/02 03:56:42;;;;;;;14.87;13.87;;;16.40;97.50;;;;;;5066075;28;20904;-67
2022/09/02 03:59:11;;;;;;;15.67;14.27;;;16.40;97.70;;;;;;5062938;28;20479;-67
2022/09/02 04:01:38;;;;;;;14.90;13.63;;;16.30;97.80;;;;;;5053024;28;20590;-68
2022/09/02 04:04:07;;;;;;;14.83;13.50;;;16.30;98.10;;;;;;5031287;28;20467;-67
2022/09/02 04:06:34;;;;;;;16.13;14.97;;;16.30;98.20;;;;;;5028217;28;20824;-67
2022/09/02 04:09:01;;;;;;;15.93;14.77;;;16.30;98.20;;;;;;5029189;28;21237;-67
2022/09/02 04:11:28;;;;;;;15.47;14.37;;;16.30;98.60;;;;;;5029239;28;20922;-67
2022/09/02 04:13:55;;;;;;;15.30;14.30;;;16.30;98.60;;;;;;5029122;28;20470;-67
2022/09/02 04:16:27;;;;;;;15.70;14.60;;;16.30;98.50;;;;;;5045008;28;20490;-67
2022/09/02 04:18:55;;;;;;;16.13;14.83;;;16.40;98.60;;;;;;5050492;28;20455;-67
2022/09/02 04:21:22;;;;;;;16.50;15.20;;;16.40;98.70;;;;;;5050737;28;20486;-68
2022/09/02 04:23:51;;;;;;;17.80;16.40;;;16.40;98.60;;;;;;5051131;28;21016;-68
2022/09/02 04:26:19;;;;;;;18.30;16.73;;;16.40;99.10;;;;;;5051194;28;20475;-68
2022/09/02 04:28:47;;;;;;;18.37;16.97;;;16.40;99.00;;;;;;5052121;28;20455;-68
2022/09/02 04:31:16;;;;;;;17.13;15.60;;;16.40;99.20;;;;;;5051122;28;20518;-68
2022/09/02 04:33:44;;;;;;;16.37;14.87;;;16.30;99.00;;;;;;5051307;28;20451;-68
2022/09/02 04:36:13;;;;;;;16.73;15.13;;;16.30;99.20;;;;;;5051700;28;20468;-68
2022/09/02 04:38:41;;;;;;;17.63;16.17;;;16.30;99.30;;;;;;5051662;28;20481;-68
2022/09/02 04:41:09;;;;;;;17.00;15.40;;;16.30;99.20;;;;;;5051011;28;20994;-69
2022/09/02 04:43:36;;;;;;;17.47;16.27;;;16.30;99.30;;;;;;5050050;28;20454;-68
2022/09/02 04:46:04;;;;;;;16.50;15.00;;;16.30;99.30;;;;;;5051748;28;20477;-66
2022/09/02 04:48:32;;;;;;;25.70;17.40;;;16.30;99.40;;;;;;5051425;28;20480;-68
2022/09/02 04:51:05;;;;;;;16.63;15.03;;;16.30;99.30;;;;;;5051295;28;20459;-67
2022/09/02 04:53:32;;;;;;;17.37;15.90;;;16.30;99.40;;;;;;5050754;28;20462;-68
2022/09/02 04:55:59;;;;;;;17.37;15.70;;;16.30;99.40;;;;;;5051320;28;20470;-68
2022/09/02 04:58:27;;;;;;;15.47;14.20;;;16.30;99.60;;;;;;5051106;28;20463;-67
2022/09/02 05:00:54;;;;;;;15.27;14.07;;;16.30;99.60;;;;;;5051064;28;20530;-67
2022/09/02 05:03:22;;;;;;;19.63;15.63;;;16.30;99.80;;;;;;5050964;28;21015;-68
2022/09/02 05:05:59;;;;;;;20.60;15.00;;;16.40;99.70;;;;;;5051304;28;20713;-67
2022/09/02 05:08:27;;;;;;;18.33;14.67;;;16.50;99.70;;;;;;5050503;28;20474;-67
2022/09/02 05:10:53;;;;;;;22.00;14.70;;;16.50;99.50;;;;;;5051789;28;20469;-67
2022/09/02 05:13:21;;;;;;;16.40;14.60;;;16.60;99.30;;;;;;5050187;28;20521;-67
2022/09/02 05:15:48;;;;;;;17.60;15.87;;;16.70;99.20;;;;;;5052223;28;22861;-67
2022/09/02 05:18:15;;;;;;;16.57;15.07;;;16.80;99.20;;;;;;5051677;28;20459;-68
2022/09/02 05:20:43;;;;;;;16.70;15.47;;;16.90;98.90;;;;;;5051193;28;20563;-67
2022/09/02 05:23:11;;;;;;;18.87;17.17;;;17.00;98.80;;;;;;5051528;28;20502;-67
2022/09/02 05:25:39;;;;;;;17.30;16.10;;;17.10;98.60;;;;;;5050884;28;20688;-67
2022/09/02 05:28:07;;;;;;;18.93;17.20;;;17.20;98.40;;;;;;5050235;28;20470;-66
2022/09/02 05:30:35;;;;;;;18.50;16.97;;;17.30;98.20;;;;;;5047910;28;20475;-68
2022/09/02 05:33:01;;;;;;;19.30;17.23;;;17.30;98.20;;;;;;5047857;28;20460;-67
2022/09/02 05:35:29;;;;;;;17.73;16.37;;;17.30;98.10;;;;;;5048497;28;20616;-68
2022/09/02 05:37:56;;;;;;;20.20;18.47;;;17.40;98.00;;;;;;5048607;28;20451;-67
2022/09/02 05:40:25;;;;;;;19.60;17.80;;;17.50;98.00;;;;;;5048086;28;20471;-67
2022/09/02 05:42:52;;;;;;;20.47;18.53;;;17.50;97.90;;;;;;5049683;28;20497;-67
2022/09/02 05:45:19;;;;;;;18.40;16.73;;;17.50;97.80;;;;;;5049131;28;20473;-67
2022/09/02 05:47:45;;;;;;;17.77;16.27;;;17.50;97.70;;;;;;5048596;28;20614;-67
2022/09/02 05:50:13;;;;;;;19.20;16.20;;;17.60;97.50;;;;;;5049271;28;20467;-67
2022/09/02 05:52:40;;;;;;;18.90;16.93;;;17.60;97.60;;;;;;5048682;28;20975;-68
2022/09/02 05:55:08;;;;;;;18.60;16.80;;;17.60;97.60;;;;;;5047838;28;20459;-67
2022/09/02 05:57:36;;;;;;;26.97;16.30;;;17.60;97.50;;;;;;5049281;28;20467;-67
2022/09/02 06:00:06;;;;;;;19.00;15.07;;;17.60;97.50;;;;;;5047877;28;20490;-67
2022/09/02 06:02:34;;;;;;;17.40;15.77;;;17.70;97.50;;;;;;5049058;28;20529;-68
2022/09/02 06:05:00;;;;;;;16.33;15.00;;;17.80;97.40;;;;;;5048738;28;21252;-67
2022/09/02 06:07:28;;;;;;;16.93;15.57;;;17.90;97.20;;;;;;5048554;28;20479;-67
2022/09/02 06:09:55;;;;;;;17.13;15.93;;;18.00;97.00;;;;;;5049389;28;20470;-67
2022/09/02 06:12:23;;;;;;;18.30;16.73;;;18.20;97.30;;;;;;5050016;28;20481;-67
2022/09/02 06:14:51;;;;;;;19.03;17.10;;;18.20;96.70;;;;;;5050817;28;22525;-68
2022/09/02 06:17:18;;;;;;;18.00;16.67;;;18.30;96.60;;;;;;5049928;28;20470;-67
2022/09/02 06:19:45;;;;;;;18.00;16.33;;;18.50;96.70;;;;;;5072369;28;20930;-67
2022/09/02 06:22:12;;;;;;;16.90;15.57;;;18.70;96.70;;;;;;5074496;28;20490;-67
2022/09/02 06:24:38;;;;;;;18.40;16.20;;;18.80;96.50;;;;;;5073133;28;20461;-67
2022/09/02 06:27:06;;;;;;;18.63;16.70;;;18.90;95.90;;;;;;5049140;28;20463;-67
2022/09/02 06:29:33;;;;;;;19.87;16.90;;;19.10;95.40;;;;;;5049982;28;20469;-68
2022/09/02 06:32:02;;;;;;;17.17;15.93;;;19.00;95.40;;;;;;5049434;28;20613;-68
2022/09/02 06:34:29;;;;;;;18.73;17.23;;;19.10;95.40;;;;;;5050340;28;20478;-67
2022/09/02 06:36:56;;;;;;;19.83;16.60;;;19.00;95.10;;;;;;5048997;28;20463;-67
2022/09/02 06:39:24;;;;;;;18.53;16.30;;;19.00;95.30;;;;;;5047670;28;20575;-67
2022/09/02 06:41:51;;;;;;;21.03;17.20;;;19.00;95.00;;;;;;5049362;28;21019;-67
2022/09/02 06:44:20;;;;;;;19.40;17.00;;;19.10;95.00;;;;;;5048631;28;20462;-67
2022/09/02 06:46:52;;;;;;;17.73;16.27;;;19.20;95.10;;;;;;5049331;28;20467;-68
2022/09/02 06:49:20;;;;;;;17.20;15.33;;;19.40;94.90;;;;;;5049376;28;20553;-68
2022/09/02 06:51:49;;;;;;;18.17;16.53;;;19.50;94.80;;;;;;5048413;28;20841;-68
2022/09/02 06:54:18;;;;;;;22.87;16.30;;;19.50;94.50;;;;;;5049377;28;20467;-67
2022/09/02 06:56:46;;;;;;;17.50;15.80;;;19.40;94.10;;;;;;5048189;28;20463;-68
2022/09/02 06:59:13;;;;;;;17.87;16.13;;;19.40;94.20;;;;;;5048761;28;20475;-67
2022/09/02 07:01:39;;;;;;;17.53;16.27;;;19.50;94.30;;;;;;5048639;28;20490;-68
2022/09/02 07:06:54;;;;;;;17.63;16.23;;;19.60;94.10;;;;;;5050790;28;20618;-68
2022/09/02 07:09:23;;;;;;;17.40;15.70;;;19.60;93.80;;;;;;5053121;28;20785;-68
2022/09/02 07:11:51;;;;;;;17.90;15.87;;;19.70;94.10;;;;;;5053139;28;21188;-69
2022/09/02 07:14:20;;;;;;;18.20;16.57;;;19.70;94.10;;;;;;5053282;28;20465;-69
2022/09/02 07:16:49;;;;;;;17.20;15.53;;;19.80;94.30;;;;;;5053146;28;20494;-68
2022/09/02 07:19:16;;;;;;;17.87;15.53;;;19.80;94.30;;;;;;5071316;28;20466;-68
2022/09/02 07:21:43;;;;;;;18.63;15.10;;;20.10;94.40;;;;;;5080957;28;20490;-69
2022/09/02 07:24:13;;;;;;;16.77;15.20;;;20.20;93.80;;;;;;5068676;28;20469;-68
2022/09/02 07:26:40;;;;;;;18.40;15.83;;;20.50;94.30;;;;;;5052512;28;20466;-68
2022/09/02 07:29:08;;;;;;;17.23;15.50;;;20.60;93.90;;;;;;5052362;28;20458;-68
2022/09/02 07:31:36;;;;;;;26.23;15.50;;;20.70;93.70;;;;;;5051663;28;21490;-68
2022/09/02 07:34:03;;;;;;;16.17;15.13;;;20.90;93.40;;;;;;5052309;28;20461;-69
2022/09/02 07:36:30;;;;;;;15.90;14.90;;;21.00;93.20;;;;;;5051821;28;20552;-69
2022/09/02 07:38:57;;;;;;;16.63;15.23;;;21.10;93.00;;;;;;5052686;28;20545;-69
2022/09/02 07:41:25;;;;;;;16.53;15.50;;;21.20;92.50;;;;;;5052144;28;20922;-68
2022/09/02 07:43:53;;;;;;;18.33;15.47;;;21.10;92.20;;;;;;5052462;28;21078;-69
2022/09/02 07:46:20;;;;;;;15.67;14.67;;;21.10;92.30;;;;;;5052525;28;20458;-69
2022/09/02 07:48:49;;;;;;;15.77;14.40;;;21.20;92.20;;;;;;5050386;28;20463;-69
2022/09/02 07:51:17;;;;;;;15.03;14.10;;;21.30;92.20;;;;;;5052553;28;20478;-68
2022/09/02 07:53:44;;;;;;;15.67;14.20;;;21.20;92.10;;;;;;5050427;28;20628;-69
2022/09/02 07:56:12;;;;;;;15.47;14.47;;;21.40;92.30;;;;;;5051035;28;20476;-69
2022/09/02 07:58:41;;;;;;;15.60;14.20;;;21.50;92.00;;;;;;5050752;28;20598;-69
2022/09/02 08:01:08;;;;;;;15.73;14.37;;;21.60;91.80;;;;;;5050226;28;20950;-70
2022/09/02 08:03:38;;;;;;;15.10;14.00;;;21.60;91.60;;;;;;5052610;28;20933;-68
2022/09/02 08:06:05;;;;;;;16.43;15.10;;;21.80;91.90;;;;;;5051209;28;20557;-66
2022/09/02 08:08:32;;;;;;;16.10;15.30;;;22.10;91.40;;;;;;5051454;28;20461;-66
2022/09/02 08:10:59;;;;;;;14.93;13.90;;;22.20;91.10;;;;;;5052229;28;23323;-66
2022/09/02 08:13:37;;;;;;;15.43;14.57;;;22.20;90.60;;;;;;5050575;28;20843;-69
2022/09/02 08:16:06;;;;;;;16.50;15.30;;;22.20;90.30;;;;;;5048850;28;20474;-67
2022/09/02 08:18:34;;;;;;;16.23;15.20;;;22.20;90.40;;;;;;5050266;28;20509;-67
2022/09/02 08:21:01;;;;;;;17.60;16.10;;;22.50;90.10;;;;;;5051141;28;20467;-67
2022/09/02 08:23:28;;;;;;;15.80;14.90;;;22.50;90.20;;;;;;5051622;28;20878;-67
2022/09/02 08:25:55;;;;;;;17.37;16.00;;;22.80;89.90;;;;;;5051018;28;20455;-68
2022/09/02 08:28:22;;;;;;;16.40;15.40;;;23.10;89.70;;;;;;5050129;28;20983;-68
2022/09/02 08:30:49;;;;;;;16.67;15.60;;;23.20;87.90;;;;;;5050664;28;21120;-68
2022/09/02 08:33:17;;;;;;;26.47;16.30;;;23.30;87.20;;;;;;5051414;28;20466;-67
2022/09/02 08:35:44;;;;;;;15.80;14.90;;;23.40;86.20;;;;;;5051663;28;20462;-68
2022/09/02 08:38:11;;;;;;;17.67;16.40;;;23.50;84.90;;;;;;5051644;28;20455;-69
2022/09/02 08:40:41;;;;;;;17.27;16.17;;;23.40;84.30;;;;;;5050916;28;20508;-68
2022/09/02 08:43:28;;;;;;;18.47;17.10;;;23.40;83.20;;;;;;5050991;28;20494;-68
2022/09/02 08:46:01;;;;;;;19.13;17.07;;;23.30;84.80;;;;;;5048885;28;21095;-68
2022/09/02 08:48:36;;;;;;;19.13;17.47;;;23.30;84.70;;;;;;5048571;28;20827;-69
2022/09/02 08:51:07;;;;;;;17.60;16.60;;;23.40;84.70;;;;;;5049648;28;20835;-69
2022/09/02 08:53:39;;;;;;;17.10;15.87;;;23.70;83.80;;;;;;5051357;28;20980;-69
2022/09/02 08:56:10;;;;;;;17.97;16.43;;;24.10;84.30;;;;;;5051156;28;20458;-69
2022/09/02 08:58:40;;;;;;;18.23;16.53;;;24.10;80.10;;;;;;5050727;28;20824;-68
2022/09/02 09:01:13;;;;;;;18.33;16.73;;;24.10;79.20;;;;;;5050495;28;20478;-68
2022/09/02 09:03:50;;;;;;;17.50;16.50;;;24.30;81.80;;;;;;5050489;28;20803;-68
2022/09/02 09:06:23;;;;;;;17.50;16.20;;;24.60;81.40;;;;;;5049824;28;20463;-68
2022/09/02 09:08:58;;;;;;;18.73;16.80;;;25.10;79.20;;;;;;5051257;28;20498;-69
2022/09/02 09:11:34;;;;;;;18.50;17.30;;;25.70;76.70;;;;;;5050088;28;20496;-69
2022/09/02 09:14:13;;;;;;;18.27;17.10;;;26.40;72.40;;;;;;5050249;28;20470;-69
2022/09/02 09:16:42;;;;;;;18.03;16.37;;;26.90;68.90;;;;;;5050762;28;21855;-69
2022/09/02 09:19:14;;;;;;;17.93;16.00;;;26.80;66.20;;;;;;5063273;28;20467;-69
2022/09/02 09:21:43;;;;;;;17.80;16.17;;;26.70;65.10;;;;;;5085576;28;20929;-68
2022/09/02 09:24:21;;;;;;;18.50;17.03;;;26.80;65.10;;;;;;5074842;28;20470;-68
2022/09/02 09:26:48;;;;;;;19.03;16.50;;;27.20;64.70;;;;;;5083134;28;20450;-68
2022/09/02 09:29:15;;;;;;;18.97;17.23;;;27.50;62.90;;;;;;5052405;28;20992;-69
2022/09/02 09:31:44;;;;;;;18.43;16.80;;;28.00;62.00;;;;;;5049814;28;20466;-68
2022/09/02 09:34:13;;;;;;;18.33;17.10;;;28.00;59.60;;;;;;5050845;28;20474;-69
2022/09/02 09:36:50;;;;;;;17.53;16.50;;;28.20;59.30;;;;;;5050500;28;20571;-69
2022/09/02 09:39:25;;;;;;;17.77;16.53;;;28.90;59.00;;;;;;5048027;28;20496;-69
2022/09/02 09:41:55;;;;;;;16.10;15.10;;;29.20;57.70;;;;;;5049261;28;20490;-69
2022/09/02 09:44:44;;;;;;;16.10;14.93;;;29.70;55.60;;;;;;5047731;28;20958;-69
2022/09/02 09:47:18;;;;;;;17.23;15.60;;;30.30;54.40;;;;;;5048392;28;20548;-68
2022/09/02 09:49:47;;;;;;;16.87;15.67;;;30.40;54.00;;;;;;5048307;28;20459;-69
2022/09/02 09:52:23;;;;;;;15.80;14.80;;;30.80;53.00;;;;;;5048081;28;20481;-69
2022/09/02 09:55:16;;;;;;;15.90;14.50;;;31.30;52.00;;;;;;5048667;28;20942;-70
2022/09/02 09:57:45;;;;;;;15.37;14.57;;;31.20;51.30;;;;;;5048028;28;21146;-69
2022/09/02 10:00:18;;;;;;;16.20;15.07;;;30.60;49.70;;;;;;5048054;28;20486;-69
2022/09/02 10:02:48;;;;;;;16.37;14.80;;;30.90;49.90;;;;;;5047727;28;20494;-69
2022/09/02 10:05:39;;;;;;;16.00;14.73;;;30.80;48.80;;;;;;5048371;28;20474;-69
2022/09/02 10:08:20;;;;;;;16.30;15.10;;;31.10;49.20;;;;;;5049186;28;20475;-69
2022/09/02 10:10:59;;;;;;;15.90;14.70;;;31.10;48.60;;;;;;5048779;28;20463;-69
2022/09/02 10:13:30;;;;;;;16.63;15.63;;;30.80;47.50;;;;;;5050491;28;20462;-69
2022/09/02 10:16:24;;;;;;;15.70;14.60;;;30.60;46.90;;;;;;5048379;28;20839;-68
2022/09/02 10:18:54;;;;;;;16.70;15.37;;;30.70;46.90;;;;;;5045996;28;20459;-69
2022/09/02 10:21:38;;;;;;;15.70;14.80;;;30.40;46.00;;;;;;5047912;28;20570;-69
2022/09/02 10:24:12;;;;;;;14.73;14.03;;;30.70;46.00;;;;;;5048364;28;20494;-70
2022/09/02 10:26:47;;;;;;;15.53;14.73;;;31.80;45.00;;;;;;5048703;28;20487;-68
2022/09/02 10:29:36;;;;;;;16.57;15.07;;;31.80;44.00;;;;;;5048534;28;20461;-69
2022/09/02 10:32:27;;;;;;;16.60;15.70;;;31.40;42.80;;;;;;5049613;28;20536;-69
2022/09/02 10:35:05;;;;;;;15.90;14.90;;;31.60;43.40;;;;;;5049046;28;20565;-68
2022/09/02 10:37:42;;;;;;;15.73;14.83;;;31.40;43.80;;;;;;5049178;28;20466;-68
2022/09/02 10:40:13;;;;;;;16.57;15.00;;;31.00;43.50;;;;;;5048717;28;20473;-68
2022/09/02 10:42:54;;;;;;;16.33;14.93;;;31.10;43.40;;;;;;5049624;28;20506;-69
2022/09/02 10:45:28;;;;;;;16.60;15.20;;;31.20;43.80;;;;;;5047478;28;20454;-69
2022/09/02 10:48:14;;;;;;;16.70;15.23;;;31.20;43.30;;;;;;5050008;28;20462;-70
2022/09/02 10:50:47;;;;;;;16.73;15.40;;;31.60;42.30;;;;;;5048661;28;20801;-70
2022/09/02 10:53:36;;;;;;;16.63;15.13;;;31.70;41.50;;;;;;5049265;28;20463;-69
2022/09/02 10:56:08;;;;;;;16.37;14.90;;;31.80;41.20;;;;;;5049383;28;20459;-69
2022/09/02 10:58:43;;;;;;;19.63;14.73;;;31.80;37.60;;;;;;5048422;28;20461;-70
2022/09/02 11:01:16;;;;;;;14.50;13.73;;;30.80;39.00;;;;;;5048561;28;20561;-70
2022/09/02 11:03:53;;;;;;;16.07;14.07;;;31.20;39.30;;;;;;5047175;28;20486;-67
2022/09/02 11:06:24;;;;;;;15.60;14.30;;;32.10;38.30;;;;;;5046915;28;20465;-68
2022/09/02 11:08:55;;;;;;;17.33;15.90;;;32.00;37.50;;;;;;5047878;28;20478;-69
2022/09/02 11:11:26;;;;;;;15.93;14.70;;;32.30;37.40;;;;;;5048354;28;20466;-68
2022/09/02 11:14:00;;;;;;;16.30;15.37;;;32.40;38.30;;;;;;5048951;28;20466;-67
2022/09/02 11:16:31;;;;;;;41.70;18.30;;;33.10;37.20;;;;;;5048770;28;20521;-69
2022/09/02 11:19:07;;;;;;;30.30;16.77;;;33.20;33.80;;;;;;5047862;28;20447;-69
2022/09/02 11:21:49;;;;;;;21.40;15.80;;;32.70;33.50;;;;;;5048771;28;20481;-69
2022/09/02 11:24:24;;;;;;;22.50;15.50;;;32.50;33.60;;;;;;5048650;28;20498;-69
2022/09/02 11:26:57;;;;;;;37.13;16.90;;;32.50;34.10;;;;;;5048212;28;20450;-68
2022/09/02 11:29:34;;;;;;;27.03;16.03;;;32.60;33.00;;;;;;5048691;28;20866;-70
2022/09/02 11:32:10;;;;;;;23.83;15.50;;;32.70;33.00;;;;;;5048638;28;22590;-70
2022/09/02 11:34:42;;;;;;;22.90;15.53;;;33.10;32.50;;;;;;5047736;28;20458;-70
2022/09/02 11:37:12;;;;;;;25.30;15.60;;;33.20;32.80;;;;;;5048069;28;20474;-70
2022/09/02 11:39:47;;;;;;;19.00;14.57;;;33.40;32.50;;;;;;5048650;28;20451;-70
2022/09/02 11:42:26;;;;;;;15.50;14.17;;;33.00;32.00;;;;;;5047743;28;20482;-69
2022/09/02 11:45:32;;;;;;;15.20;14.50;;;32.10;32.50;;;;;;5047355;28;20906;-70
2022/09/02 11:48:32;;;;;;;15.80;14.63;;;32.80;32.70;;;;;;5035529;28;20977;-69
2022/09/02 11:51:18;;;;;;;18.97;15.77;;;33.70;32.10;;;;;;5047662;28;20458;-70
2022/09/02 11:53:46;;;;;;;15.20;14.40;;;33.80;31.10;;;;;;5051129;28;20466;-70
2022/09/02 11:56:19;;;;;;;18.10;15.20;;;33.80;31.30;;;;;;5051965;28;20913;-70
2022/09/02 11:58:48;;;;;;;33.77;15.63;;;33.90;30.40;;;;;;5051616;28;20449;-71
2022/09/02 12:01:28;;;;;;;33.40;16.33;;;33.60;30.60;;;;;;5051858;28;20474;-69
2022/09/02 12:04:00;;;;;;;19.17;14.70;;;33.20;30.60;;;;;;5051684;28;20955;-70
2022/09/02 12:06:27;;;;;;;17.17;14.80;;;33.80;29.90;;;;;;5052257;28;20465;-67
2022/09/02 12:09:01;;;;;;;15.67;14.43;;;34.00;29.60;;;;;;5051843;28;20823;-69
2022/09/02 12:11:58;;;;;;;15.17;14.27;;;34.10;29.80;;;;;;5052851;28;20490;-68
2022/09/02 12:15:05;;;;;;;28.43;15.20;;;34.80;29.40;;;;;;5052292;28;20474;-67
2022/09/02 12:17:42;;;;;;;18.23;16.10;;;35.20;28.70;;;;;;5051724;28;21032;-69
2022/09/02 12:20:11;;;;;;;16.93;15.37;;;34.70;28.90;;;;;;5049876;28;20473;-69
2022/09/02 12:22:39;;;;;;;21.20;15.53;;;35.00;28.50;;;;;;5051522;28;20554;-70
2022/09/02 12:25:41;;;;;;;15.50;14.30;;;35.30;28.10;;;;;;5051275;28;21125;-69
2022/09/02 12:28:22;;;;;;;17.80;14.90;;;35.50;27.70;;;;;;5051446;28;20466;-69
2022/09/02 12:31:09;;;;;;;15.60;14.80;;;35.70;27.30;;;;;;5051146;28;20487;-68
2022/09/02 12:33:38;;;;;;;14.17;13.53;;;35.10;27.20;;;;;;5049777;28;20864;-69
2022/09/02 12:36:06;;;;;;;16.53;15.03;;;35.20;27.50;;;;;;5050372;28;20464;-68
2022/09/02 12:38:37;;;;;;;25.83;16.77;;;35.20;27.70;;;;;;5050422;28;20475;-68
2022/09/02 12:41:25;;;;;;;22.50;15.17;;;35.40;27.40;;;;;;5049468;28;20459;-70
2022/09/02 12:44:38;;;;;;;15.87;14.87;;;35.20;27.30;;;;;;5050336;28;21478;-70
2022/09/02 12:47:08;;;;;;;15.47;14.37;;;35.40;27.20;;;;;;5050450;28;20466;-69
2022/09/02 12:49:48;;;;;;;16.00;14.93;;;35.30;26.80;;;;;;5050718;28;20478;-69